createdAt,value
2022-08-03T00:02:19.676Z,100480.00
2022-08-03T00:04:48.188Z,100474.40
2022-08-03T00:07:16.941Z,100480.00
2022-08-03T00:09:44.808Z,100478.80
2022-08-03T00:12:12.673Z,100478.60
2022-08-03T00:14:40.387Z,100480.00
2022-08-03T00:17:08.713Z,100479.40
2022-08-03T00:19:36.405Z,100480.20
2022-08-03T00:22:04.166Z,100474.60
2022-08-03T00:24:31.948Z,100475.00
2022-08-03T00:26:59.719Z,100472.40
2022-08-03T00:29:27.691Z,100468.40
2022-08-03T00:32:00.318Z,100472.00
2022-08-03T00:34:36.204Z,100464.80
2022-08-03T00:37:16.692Z,100461.00
2022-08-03T00:39:46.244Z,100462.00
2022-08-03T00:42:14.504Z,100459.80
2022-08-03T00:44:46.034Z,100458.80
2022-08-03T00:47:13.773Z,100456.60
2022-08-03T00:49:42.609Z,100453.80
2022-08-03T00:52:11.683Z,100448.60
2022-08-03T00:54:40.087Z,100450.20
2022-08-03T00:57:08.465Z,100451.80
2022-08-03T00:59:38.207Z,100449.60
2022-08-03T01:02:06.504Z,100447.00
2022-08-03T01:04:34.212Z,100450.80
2022-08-03T01:07:46.658Z,100451.60
2022-08-03T01:10:54.497Z,100448.60
2022-08-03T01:14:01.433Z,100447.60
2022-08-03T01:17:02.028Z,100451.00
2022-08-03T01:20:05.077Z,100447.80
2022-08-03T01:23:31.357Z,100454.80
2022-08-03T01:26:25.056Z,100455.80
2022-08-03T01:29:18.847Z,100459.00
2022-08-03T01:32:59.744Z,100461.00
2022-08-03T01:35:03.685Z,100461.00
2022-08-03T01:37:48.119Z,100455.80
2022-08-03T01:40:19.551Z,100453.80
2022-08-03T01:42:50.612Z,100455.40
2022-08-03T01:45:19.759Z,100452.00
2022-08-03T01:47:49.974Z,100457.00
2022-08-03T01:50:24.117Z,100456.40
2022-08-03T01:52:54.480Z,100456.00
2022-08-03T01:55:24.389Z,100455.60
2022-08-03T01:58:06.126Z,100452.60
2022-08-03T02:00:39.776Z,100455.80
2022-08-03T02:03:09.676Z,100451.40
2022-08-03T02:05:40.102Z,100456.60
2022-08-03T02:08:13.762Z,100450.40
2022-08-03T02:10:43.512Z,100452.60
2022-08-03T02:13:12.643Z,100452.60
2022-08-03T02:15:42.982Z,100451.60
2022-08-03T02:18:13.341Z,100450.80
2022-08-03T02:20:44.498Z,100445.20
2022-08-03T02:23:14.838Z,100443.20
2022-08-03T02:25:49.761Z,100440.80
2022-08-03T02:28:20.986Z,100438.20
2022-08-03T02:30:53.922Z,100439.20
2022-08-03T02:33:31.704Z,100430.60
2022-08-03T02:36:02.084Z,100433.20
2022-08-03T02:38:34.870Z,100433.00
2022-08-03T02:41:10.549Z,100426.60
2022-08-03T02:44:06.271Z,100425.00
2022-08-03T02:46:34.188Z,100419.20
2022-08-03T02:49:41.127Z,100423.40
2022-08-03T02:51:54.372Z,100422.40
2022-08-03T02:54:25.226Z,100417.60
2022-08-03T02:56:56.787Z,100419.20
2022-08-03T02:59:26.360Z,100413.80
2022-08-03T03:01:55.638Z,100418.00
2022-08-03T03:04:25.690Z,100417.60
2022-08-03T03:07:01.679Z,100413.00
2022-08-03T03:09:41.567Z,100420.60
2022-08-03T03:12:14.083Z,100421.60
2022-08-03T03:14:42.358Z,100427.60
2022-08-03T03:17:12.327Z,100422.20
2022-08-03T03:19:41.518Z,100423.20
2022-08-03T03:22:10.574Z,100421.40
2022-08-03T03:24:41.573Z,100419.20
2022-08-03T03:27:09.793Z,100417.40
2022-08-03T03:29:39.405Z,100412.00
2022-08-03T03:32:09.134Z,100410.20
2022-08-03T03:34:41.059Z,100411.80
2022-08-03T03:37:12.183Z,100411.40
2022-08-03T03:39:40.049Z,100415.20
2022-08-03T03:42:07.893Z,100414.40
2022-08-03T03:44:35.790Z,100413.00
2022-08-03T03:47:04.184Z,100412.40
2022-08-03T03:49:32.613Z,100414.80
2022-08-03T03:52:00.409Z,100410.80
2022-08-03T03:54:44.023Z,100411.80
2022-08-03T03:57:13.655Z,100413.20
2022-08-03T03:59:42.858Z,100420.80
2022-08-03T04:02:12.376Z,100421.80
2022-08-03T04:04:59.027Z,100426.20
2022-08-03T04:07:46.346Z,100426.00
2022-08-03T04:10:38.693Z,100428.20
2022-08-03T04:13:13.546Z,100427.60
2022-08-03T04:15:42.258Z,100420.80
2022-08-03T04:18:15.578Z,100432.20
2022-08-03T04:20:48.805Z,100427.20
2022-08-03T04:23:24.569Z,100429.40
2022-08-03T04:25:56.261Z,100430.20
2022-08-03T04:28:30.793Z,100432.00
2022-08-03T04:31:01.597Z,100434.40
2022-08-03T04:33:33.502Z,100428.40
2022-08-03T04:36:08.062Z,100436.00
2022-08-03T04:38:58.042Z,100433.40
2022-08-03T04:41:27.761Z,100431.80
2022-08-03T04:44:00.268Z,100433.20
2022-08-03T04:46:39.213Z,100439.80
2022-08-03T04:49:10.433Z,100435.40
2022-08-03T04:51:40.558Z,100440.80
2022-08-03T04:54:13.309Z,100446.80
2022-08-03T04:56:41.957Z,100446.20
2022-08-03T04:59:10.753Z,100447.60
2022-08-03T05:01:41.520Z,100452.00
2022-08-03T05:04:09.810Z,100456.40
2022-08-03T05:06:41.408Z,100458.40
2022-08-03T05:09:16.202Z,100456.20
2022-08-03T05:12:05.563Z,100453.60
2022-08-03T05:14:34.736Z,100453.20
2022-08-03T05:17:02.558Z,100454.20
2022-08-03T05:19:30.589Z,100446.40
2022-08-03T05:21:59.575Z,100443.20
2022-08-03T05:24:27.422Z,100449.20
2022-08-03T05:26:55.126Z,100451.20
2022-08-03T05:29:22.943Z,100448.40
2022-08-03T05:31:50.665Z,100449.60
2022-08-03T05:34:18.349Z,100453.60
2022-08-03T05:36:46.074Z,100452.20
2022-08-03T05:39:13.863Z,100456.00
2022-08-03T05:41:41.719Z,100458.20
2022-08-03T05:44:09.454Z,100461.20
2022-08-03T05:46:37.193Z,100460.40
2022-08-03T05:49:05.080Z,100456.20
2022-08-03T05:51:32.871Z,100453.40
2022-08-03T05:54:00.631Z,100453.20
2022-08-03T05:56:28.611Z,100449.60
2022-08-03T05:58:56.376Z,100445.80
2022-08-03T06:01:24.492Z,100445.60
2022-08-03T06:03:52.812Z,100447.00
2022-08-03T06:06:20.621Z,100449.00
2022-08-03T06:08:48.899Z,100447.80
2022-08-03T06:11:16.852Z,100453.20
2022-08-03T06:13:44.864Z,100448.00
2022-08-03T06:16:12.689Z,100446.80
2022-08-03T06:18:40.525Z,100448.00
2022-08-03T06:21:14.694Z,100451.00
2022-08-03T06:23:54.306Z,100447.60
2022-08-03T06:26:27.917Z,100441.20
2022-08-03T06:28:56.190Z,100442.20
2022-08-03T06:31:32.809Z,100448.60
2022-08-03T06:34:33.305Z,100447.80
2022-08-03T06:36:58.593Z,100454.60
2022-08-03T06:39:29.498Z,100448.60
2022-08-03T06:41:57.956Z,100448.60
2022-08-03T06:44:26.149Z,100450.20
2022-08-03T06:46:53.976Z,100455.60
2022-08-03T06:49:21.974Z,100459.20
2022-08-03T06:52:06.263Z,100450.80
2022-08-03T06:54:35.765Z,100448.40
2022-08-03T06:57:04.238Z,100454.40
2022-08-03T07:00:06.135Z,100464.40
2022-08-03T07:02:20.396Z,100466.20
2022-08-03T07:04:49.141Z,100463.60
2022-08-03T07:07:17.780Z,100457.80
2022-08-03T07:09:55.670Z,100458.20
2022-08-03T07:12:30.287Z,100460.40
2022-08-03T07:15:01.757Z,100461.00
2022-08-03T07:17:32.657Z,100462.80
2022-08-03T07:20:03.619Z,100460.40
2022-08-03T07:22:31.460Z,100460.80
2022-08-03T07:24:59.576Z,100463.40
2022-08-03T07:27:28.550Z,100459.20
2022-08-03T07:29:58.488Z,100463.00
2022-08-03T07:32:27.022Z,100458.20
2022-08-03T07:34:58.470Z,100469.00
2022-08-03T07:37:29.942Z,100465.40
2022-08-03T07:39:58.455Z,100468.40
2022-08-03T07:42:28.195Z,100470.40
2022-08-03T07:44:57.225Z,100470.20
2022-08-03T07:47:35.416Z,100467.80
2022-08-03T07:50:06.511Z,100464.60
2022-08-03T07:52:48.620Z,100466.80
2022-08-03T07:55:22.347Z,100462.40
2022-08-03T07:58:05.214Z,100466.80
2022-08-03T08:00:33.944Z,100461.60
2022-08-03T08:03:02.478Z,100461.00
2022-08-03T08:05:30.846Z,100455.80
2022-08-03T08:07:58.659Z,100454.80
2022-08-03T08:10:26.522Z,100455.20
2022-08-03T08:12:55.548Z,100448.80
2022-08-03T08:15:23.993Z,100455.40
2022-08-03T08:17:55.978Z,100453.20
2022-08-03T08:20:35.015Z,100451.20
2022-08-03T08:23:34.512Z,100449.80
2022-08-03T08:25:56.674Z,100458.40
2022-08-03T08:28:30.215Z,100455.40
2022-08-03T08:31:00.222Z,100452.80
2022-08-03T08:33:42.249Z,100453.80
2022-08-03T08:36:15.983Z,100452.20
2022-08-03T08:38:45.142Z,100450.00
2022-08-03T08:41:15.010Z,100452.80
2022-08-03T08:43:43.709Z,100452.00
2022-08-03T08:46:23.474Z,100454.00
2022-08-03T08:48:54.579Z,100458.20
2022-08-03T08:51:50.461Z,100454.80
2022-08-03T08:54:22.563Z,100457.00
2022-08-03T08:56:52.636Z,100457.00
2022-08-03T08:59:21.922Z,100451.00
2022-08-03T09:01:49.721Z,100456.80
2022-08-03T09:04:18.035Z,100455.40
2022-08-03T09:06:58.853Z,100449.80
2022-08-03T09:10:11.949Z,100453.00
2022-08-03T09:12:41.195Z,100450.80
2022-08-03T09:15:33.195Z,100459.40
2022-08-03T09:18:04.174Z,100452.00
2022-08-03T09:20:34.983Z,100447.60
2022-08-03T09:23:26.319Z,100454.00
2022-08-03T09:26:00.088Z,100456.40
2022-08-03T09:29:00.594Z,100457.60
2022-08-03T09:31:37.289Z,100461.40
2022-08-03T09:34:14.539Z,100458.20
2022-08-03T09:36:50.151Z,100461.20
2022-08-03T09:39:40.433Z,100465.40
2022-08-03T09:42:18.667Z,100454.60
2022-08-03T09:44:52.397Z,100449.60
2022-08-03T09:47:37.557Z,100450.20
2022-08-03T09:50:12.959Z,100456.60
2022-08-03T09:52:49.737Z,100451.80
2022-08-03T09:56:32.916Z,100455.60
2022-08-03T09:58:11.304Z,100454.40
2022-08-03T10:00:55.922Z,100457.20
2022-08-03T10:03:26.989Z,100461.00
2022-08-03T10:05:59.766Z,100465.00
2022-08-03T10:08:28.014Z,100460.40
2022-08-03T10:10:57.883Z,100455.80
2022-08-03T10:13:25.714Z,100456.20
2022-08-03T10:16:24.146Z,100457.80
2022-08-03T10:18:41.201Z,100456.00
2022-08-03T10:21:16.569Z,100456.40
2022-08-03T10:23:44.689Z,100462.40
2022-08-03T10:26:19.014Z,100451.00
2022-08-03T10:28:50.547Z,100458.80
2022-08-03T10:31:22.256Z,100456.00
2022-08-03T10:33:55.452Z,100458.00
2022-08-03T10:36:27.354Z,100456.40
2022-08-03T10:38:57.248Z,100461.40
2022-08-03T10:41:32.418Z,100460.00
2022-08-03T10:44:13.298Z,100456.00
2022-08-03T10:46:45.206Z,100455.60
2022-08-03T10:49:25.473Z,100459.00
2022-08-03T10:52:13.441Z,100460.00
2022-08-03T10:55:11.855Z,100462.60
2022-08-03T10:57:58.506Z,100458.20
2022-08-03T11:00:30.289Z,100453.80
2022-08-03T11:03:14.021Z,100449.40
2022-08-03T11:05:43.764Z,100450.00
2022-08-03T11:08:30.987Z,100441.00
2022-08-03T11:11:03.538Z,100438.60
2022-08-03T11:13:33.695Z,100441.20
2022-08-03T11:16:21.855Z,100443.80
2022-08-03T11:19:01.699Z,100439.60
2022-08-03T11:21:51.657Z,100443.80
2022-08-03T11:24:37.593Z,100444.00
2022-08-03T11:27:14.324Z,100451.40
2022-08-03T11:30:06.710Z,100446.40
2022-08-03T11:32:37.388Z,100449.00
2022-08-03T11:35:16.741Z,100450.60
2022-08-03T11:38:05.995Z,100451.40
2022-08-03T11:40:39.869Z,100451.60
2022-08-03T11:43:21.949Z,100452.60
2022-08-03T11:46:02.416Z,100451.60
2022-08-03T11:48:43.837Z,100450.20
2022-08-03T11:51:22.858Z,100446.80
2022-08-03T11:54:06.142Z,100448.20
2022-08-03T11:56:49.632Z,100448.60
2022-08-03T11:59:21.806Z,100445.60
2022-08-03T12:01:50.907Z,100444.40
2022-08-03T12:04:18.717Z,100447.80
2022-08-03T12:07:01.940Z,100446.00
2022-08-03T12:09:29.660Z,100450.40
2022-08-03T12:12:00.493Z,100446.40
2022-08-03T12:14:48.577Z,100451.60
2022-08-03T12:17:18.695Z,100449.00
2022-08-03T12:19:47.088Z,100456.80
2022-08-03T12:22:16.778Z,100453.40
2022-08-03T12:24:47.160Z,100452.20
2022-08-03T12:27:27.748Z,100457.40
2022-08-03T12:29:59.269Z,100456.80
2022-08-03T12:32:29.767Z,100458.00
2022-08-03T12:35:01.278Z,100463.40
2022-08-03T12:37:30.571Z,100454.80
2022-08-03T12:40:07.756Z,100453.40
2022-08-03T12:42:40.180Z,100450.40
2022-08-03T12:45:26.284Z,100452.20
2022-08-03T12:47:59.907Z,100448.60
2022-08-03T12:50:34.887Z,100446.20
2022-08-03T12:53:08.009Z,100448.80
2022-08-03T12:55:56.494Z,100440.00
2022-08-03T12:58:34.119Z,100443.40
2022-08-03T13:01:09.677Z,100443.00
2022-08-03T13:03:50.281Z,100447.40
2022-08-03T13:06:25.725Z,100438.40
2022-08-03T13:09:07.862Z,100443.20
2022-08-03T13:11:58.079Z,100441.00
2022-08-03T13:14:23.914Z,100443.40
2022-08-03T13:16:51.881Z,100433.80
2022-08-03T13:19:19.723Z,100433.60
2022-08-03T13:21:53.783Z,100432.00
2022-08-03T13:24:33.798Z,100435.80
2022-08-03T13:27:58.910Z,100439.00
2022-08-03T13:29:50.885Z,100441.00
2022-08-03T13:32:19.575Z,100438.20
2022-08-03T13:34:47.551Z,100443.00
2022-08-03T13:37:15.994Z,100443.00
2022-08-03T13:39:57.339Z,100442.80
2022-08-03T13:42:30.964Z,100441.00
2022-08-03T13:45:00.371Z,100439.20
2022-08-03T13:47:28.458Z,100440.20
2022-08-03T13:50:01.826Z,100433.00
2022-08-03T13:52:33.460Z,100438.80
2022-08-03T13:55:02.052Z,100439.20
2022-08-03T13:58:03.904Z,100437.60
2022-08-03T14:00:27.946Z,100436.60
2022-08-03T14:03:05.261Z,100434.40
2022-08-03T14:05:38.724Z,100428.80
2022-08-03T14:08:07.954Z,100425.00
2022-08-03T14:10:38.469Z,100430.40
2022-08-03T14:13:07.421Z,100428.40
2022-08-03T14:15:37.436Z,100424.20
2022-08-03T14:18:12.813Z,100431.00
2022-08-03T14:20:49.996Z,100431.80
2022-08-03T14:23:19.671Z,100427.20
2022-08-03T14:25:51.629Z,100426.60
2022-08-03T14:28:23.131Z,100423.60
2022-08-03T14:30:56.058Z,100426.40
2022-08-03T14:33:24.528Z,100424.80
2022-08-03T14:35:53.366Z,100424.20
2022-08-03T14:38:22.223Z,100424.40
2022-08-03T14:40:51.353Z,100420.60
2022-08-03T14:43:22.334Z,100419.00
2022-08-03T14:45:53.375Z,100417.60
2022-08-03T14:50:33.568Z,100417.20
2022-08-03T14:51:10.903Z,100412.40
2022-08-03T14:53:38.652Z,100410.20
2022-08-03T14:56:10.135Z,100410.80
2022-08-03T14:58:38.733Z,100412.20
2022-08-03T15:02:03.167Z,100406.00
2022-08-03T15:03:55.320Z,100405.00
2022-08-03T15:06:23.035Z,100404.80
2022-08-03T15:09:13.609Z,100400.20
2022-08-03T15:11:39.313Z,100397.80
2022-08-03T15:14:09.346Z,100393.60
2022-08-03T15:16:38.754Z,100394.60
2022-08-03T15:20:00.818Z,100395.00
2022-08-03T15:21:54.539Z,100395.60
2022-08-03T15:24:22.325Z,100390.80
2022-08-03T15:26:52.360Z,100384.20
2022-08-03T15:30:05.356Z,100387.00
2022-08-03T15:32:09.634Z,100381.60
2022-08-03T15:34:37.600Z,100375.00
2022-08-03T15:37:16.243Z,100369.60
2022-08-03T15:39:59.053Z,100369.40
2022-08-03T15:42:30.510Z,100368.20
2022-08-03T15:44:59.128Z,100366.80
2022-08-03T15:47:27.451Z,100361.00
2022-08-03T15:49:55.258Z,100356.00
2022-08-03T15:52:23.098Z,100359.60
2022-08-03T15:54:50.945Z,100361.20
2022-08-03T15:57:19.209Z,100358.20
2022-08-03T15:59:47.614Z,100366.60
2022-08-03T16:02:16.198Z,100368.60
2022-08-03T16:04:43.980Z,100367.00
2022-08-03T16:07:12.775Z,100363.80
2022-08-03T16:09:42.831Z,100367.20
2022-08-03T16:12:16.384Z,100364.80
2022-08-03T16:14:52.712Z,100362.40
2022-08-03T16:17:22.246Z,100363.80
2022-08-03T16:19:54.113Z,100363.00
2022-08-03T16:22:24.825Z,100359.60
2022-08-03T16:24:54.611Z,100364.00
2022-08-03T16:27:56.853Z,100364.60
2022-08-03T16:30:15.292Z,100367.20
2022-08-03T16:32:45.404Z,100364.40
2022-08-03T16:35:19.560Z,100365.40
2022-08-03T16:37:54.636Z,100363.20
2022-08-03T16:40:25.127Z,100368.00
2022-08-03T16:42:52.976Z,100367.80
2022-08-03T16:45:21.147Z,100370.20
2022-08-03T16:47:49.085Z,100373.80
2022-08-03T16:50:35.313Z,100375.60
2022-08-03T16:53:16.438Z,100377.00
2022-08-03T16:55:53.922Z,100382.00
2022-08-03T16:58:41.482Z,100381.60
2022-08-03T17:01:22.444Z,100379.80
2022-08-03T17:04:04.874Z,100379.40
2022-08-03T17:06:45.087Z,100378.60
2022-08-03T17:09:20.816Z,100379.00
2022-08-03T17:11:50.995Z,100372.00
2022-08-03T17:14:28.369Z,100377.00
2022-08-03T17:17:03.700Z,100380.20
2022-08-03T17:19:34.966Z,100379.60
2022-08-03T17:22:12.334Z,100378.80
2022-08-03T17:25:07.618Z,100381.40
2022-08-03T17:28:49.565Z,100380.20
2022-08-03T17:30:46.505Z,100377.80
2022-08-03T17:33:20.669Z,100379.60
2022-08-03T17:35:53.277Z,100377.80
2022-08-03T17:38:24.961Z,100380.60
2022-08-03T17:41:00.170Z,100383.60
2022-08-03T17:44:12.957Z,100383.80
2022-08-03T17:46:16.345Z,100382.80
2022-08-03T17:48:47.614Z,100385.00
2022-08-03T17:51:46.515Z,100390.40
2022-08-03T17:54:28.478Z,100394.80
2022-08-03T17:57:22.504Z,100390.20
2022-08-03T18:00:25.944Z,100391.00
2022-08-03T18:03:31.618Z,100391.00
2022-08-03T18:06:27.881Z,100394.80
2022-08-03T18:09:00.178Z,100396.40
2022-08-03T18:11:35.531Z,100396.20
2022-08-03T18:14:57.413Z,100392.60
2022-08-03T18:17:55.337Z,100400.00
2022-08-03T18:20:34.567Z,100393.20
2022-08-03T18:23:25.393Z,100399.00
2022-08-03T18:26:06.721Z,100402.60
2022-08-03T18:28:38.377Z,100401.80
2022-08-03T18:31:09.810Z,100396.00
2022-08-03T18:34:18.323Z,100393.80
2022-08-03T18:36:32.926Z,100394.20
2022-08-03T18:39:12.018Z,100396.80
2022-08-03T18:41:46.134Z,100397.60
2022-08-03T18:44:52.498Z,100394.60
2022-08-03T18:47:16.266Z,100387.80
2022-08-03T18:50:06.288Z,100386.40
2022-08-03T18:52:56.861Z,100381.00
2022-08-03T18:55:35.319Z,100385.00
2022-08-03T18:58:03.286Z,100389.80
2022-08-03T19:00:42.403Z,100386.80
2022-08-03T19:03:43.414Z,100385.00
2022-08-03T19:06:23.077Z,100385.20
2022-08-03T19:09:13.012Z,100382.20
2022-08-03T19:12:11.025Z,100383.40
2022-08-03T19:14:52.495Z,100383.80
2022-08-03T19:17:22.658Z,100385.40
2022-08-03T19:19:58.787Z,100385.20
2022-08-03T19:22:30.961Z,100390.20
2022-08-03T19:25:04.762Z,100389.20
2022-08-03T19:27:35.184Z,100392.80
2022-08-03T19:30:16.805Z,100394.20
2022-08-03T19:32:50.921Z,100394.20
2022-08-03T19:35:54.799Z,100394.00
2022-08-03T19:38:09.708Z,100394.60
2022-08-03T19:40:50.970Z,100400.40
2022-08-03T19:43:52.713Z,100391.40
2022-08-03T19:46:30.201Z,100395.80
2022-08-03T19:49:15.228Z,100397.00
2022-08-03T19:52:01.255Z,100399.40
2022-08-03T19:57:36.568Z,100399.00
2022-08-03T20:00:11.884Z,100399.60
2022-08-03T20:02:41.026Z,100409.80
2022-08-03T20:05:14.982Z,100409.00
2022-08-03T20:07:47.734Z,100416.20
2022-08-03T20:10:19.835Z,100421.20
2022-08-03T20:12:49.657Z,100429.20
2022-08-03T20:15:22.236Z,100430.60
2022-08-03T20:17:55.343Z,100431.20
2022-08-03T20:20:31.235Z,100430.80
2022-08-03T20:23:02.709Z,100443.00
2022-08-03T20:25:57.020Z,100443.60
2022-08-03T20:28:50.147Z,100443.40
2022-08-03T20:31:25.188Z,100445.60
2022-08-03T20:34:00.813Z,100445.40
2022-08-03T20:36:28.958Z,100440.40
2022-08-03T20:38:58.774Z,100438.00
2022-08-03T20:41:27.445Z,100436.60
2022-08-03T20:43:55.268Z,100437.40
2022-08-03T20:46:30.905Z,100431.00
2022-08-03T20:49:03.904Z,100434.20
2022-08-03T20:51:50.083Z,100434.00
2022-08-03T20:54:29.578Z,100430.00
2022-08-03T20:57:03.612Z,100430.60
2022-08-03T20:59:50.675Z,100435.40
2022-08-03T21:02:29.976Z,100442.20
2022-08-03T21:05:08.544Z,100442.40
2022-08-03T21:10:39.270Z,100442.00
2022-08-03T21:13:03.182Z,100401.20
2022-08-03T21:13:08.099Z,100436.60
2022-08-03T21:13:47.262Z,100449.80
2022-08-03T21:16:17.179Z,100460.40
2022-08-03T21:18:51.075Z,100461.40
2022-08-03T21:21:22.302Z,100456.80
2022-08-03T21:23:54.750Z,100454.40
2022-08-03T21:26:26.142Z,100453.40
2022-08-03T21:28:56.750Z,100448.40
2022-08-03T21:31:26.804Z,100451.40
2022-08-03T21:34:03.406Z,100449.60
2022-08-03T21:36:35.949Z,100450.00
2022-08-03T21:39:08.316Z,100455.20
2022-08-03T21:41:39.594Z,100451.60
2022-08-03T21:44:08.133Z,100447.80
2022-08-03T21:46:40.331Z,100450.80
2022-08-03T21:49:51.711Z,100453.20
2022-08-03T21:52:05.635Z,100456.40
2022-08-03T21:54:42.163Z,100457.40
2022-08-03T21:57:24.188Z,100459.60
2022-08-03T22:00:02.063Z,100456.60
2022-08-03T22:02:32.054Z,100452.80
2022-08-03T22:05:00.659Z,100456.20
2022-08-03T22:07:34.632Z,100458.00
2022-08-03T22:10:06.412Z,100459.60
2022-08-03T22:12:35.616Z,100460.20
2022-08-03T22:15:11.339Z,100462.20
2022-08-03T22:17:55.709Z,100462.40
2022-08-03T22:20:25.814Z,100467.00
2022-08-03T22:22:56.930Z,100468.80
2022-08-03T22:25:31.139Z,100466.00
2022-08-03T22:28:09.082Z,100465.60
2022-08-03T22:30:39.306Z,100465.00
2022-08-03T22:33:11.710Z,100457.00
2022-08-03T22:35:47.709Z,100458.60
2022-08-03T22:38:18.685Z,100458.00
2022-08-03T22:40:49.784Z,100465.00
2022-08-03T22:43:17.703Z,100466.40
2022-08-03T22:46:09.616Z,100464.00
2022-08-03T22:48:41.221Z,100466.40
2022-08-03T22:51:10.111Z,100472.80
2022-08-03T22:53:39.336Z,100477.20
2022-08-03T22:56:07.743Z,100482.00
2022-08-03T22:58:35.492Z,100480.80
2022-08-03T23:01:08.520Z,100481.20
2022-08-03T23:03:59.163Z,100478.00
2022-08-03T23:06:38.352Z,100481.00
2022-08-03T23:09:11.211Z,100484.20
2022-08-03T23:11:45.189Z,100481.40
2022-08-03T23:14:18.435Z,100484.60
2022-08-03T23:16:47.523Z,100484.80
2022-08-03T23:19:25.712Z,100484.40
2022-08-03T23:22:03.565Z,100485.60
2022-08-03T23:24:36.611Z,100485.60
2022-08-03T23:27:08.061Z,100492.80
2022-08-03T23:29:37.934Z,100483.20
2022-08-03T23:32:07.027Z,100487.20
2022-08-03T23:34:57.673Z,100488.00
2022-08-03T23:37:26.490Z,100486.80
2022-08-03T23:39:57.263Z,100481.40
2022-08-03T23:42:26.087Z,100478.00
2022-08-03T23:45:05.445Z,100478.60
2022-08-03T23:47:46.519Z,100477.20
2022-08-03T23:50:16.234Z,100480.00
2022-08-03T23:52:59.933Z,100480.20
2022-08-03T23:56:12.609Z,100481.20
2022-08-03T23:59:09.010Z,100479.00
